Dexter, Oregon
Current Conditions -  °F | °C
As of 6:54 PM on Monday 20 Oct 2014 (Local Time) from KEUG Reporting Station
Broken Clouds Broken Clouds  
Wind Chill: 57°   Ceiling: 7000
Heat Index: 57°   Visibility: 10mi
Dew Point: 52°   Wind: 6mph
Humidity: 83%   Direction: 260°W
Pressure: 29.84"   Gusts: NA
Location:  43.92°N, 122.83°W
Report Text: KEUG 210154Z 26005KT 10SM FEW030 SCT055 BKN070 BKN160 14/11 A2984 RMK AO2 RAE0056 SLP106 CB DSNT NE AND E P0000 T01390111
Loading
Personal Weather Stations






























Interactive Weather Map
Tropical Storm Tracking
New forecast layout! Learn more

10-Day Weather Forecast

Advertisements
Track Severe Weather on mobile